createdAt,value
2018-06-29T00:00:20.915Z,159.60
2018-06-29T00:02:50.897Z,197.40
2018-06-29T00:05:21.354Z,224.43
2018-06-29T00:07:50.826Z,183.43
2018-06-29T00:10:24.464Z,184.13
2018-06-29T00:12:54.648Z,113.80
2018-06-29T00:15:24.304Z,103.60
2018-06-29T00:17:55.344Z,122.90
2018-06-29T00:20:24.925Z,158.17
2018-06-29T00:22:55.138Z,128.57
2018-06-29T00:25:24.622Z,116.73
2018-06-29T00:27:54.844Z,87.83
2018-06-29T00:30:24.354Z,98.27
2018-06-29T00:32:54.375Z,100.43
2018-06-29T00:35:23.866Z,114.53
2018-06-29T00:37:53.665Z,167.80
2018-06-29T00:40:25.027Z,147.03
2018-06-29T00:42:54.408Z,117.30
2018-06-29T00:45:23.904Z,93.00
2018-06-29T00:47:54.528Z,75.30
2018-06-29T00:50:24.082Z,98.07
2018-06-29T00:52:53.564Z,90.00
2018-06-29T00:55:24.152Z,94.90
2018-06-29T00:57:54.659Z,84.63
2018-06-29T01:00:24.154Z,91.17
2018-06-29T01:02:54.019Z,94.77
2018-06-29T01:05:23.343Z,89.67
2018-06-29T01:07:52.395Z,86.33
2018-06-29T01:10:21.774Z,84.30
2018-06-29T01:12:51.149Z,95.90
2018-06-29T01:15:20.731Z,88.57
2018-06-29T01:17:50.699Z,81.57
2018-06-29T01:20:21.246Z,78.67
2018-06-29T01:22:50.693Z,81.23
2018-06-29T01:25:20.482Z,76.53
2018-06-29T01:27:49.944Z,79.90
2018-06-29T01:30:19.353Z,72.67
2018-06-29T01:32:49.412Z,75.93
2018-06-29T01:35:18.813Z,76.27
2018-06-29T01:37:48.308Z,65.07
2018-06-29T01:40:19.647Z,68.90
2018-06-29T01:42:49.092Z,98.60
2018-06-29T01:45:18.656Z,103.50
2018-06-29T01:47:48.175Z,108.43
2018-06-29T01:50:18.665Z,111.37
2018-06-29T01:52:47.990Z,94.53
2018-06-29T01:55:17.502Z,74.93
2018-06-29T01:57:47.004Z,75.77
2018-06-29T02:00:16.654Z,82.23
2018-06-29T02:02:46.126Z,84.60
2018-06-29T02:05:15.624Z,77.50
2018-06-29T02:07:45.122Z,80.07
2018-06-29T02:10:15.047Z,91.00
2018-06-29T02:12:44.592Z,120.23
2018-06-29T02:15:14.211Z,88.13
2018-06-29T02:17:43.717Z,89.33
2018-06-29T02:20:13.254Z,97.20
2018-06-29T02:22:42.780Z,110.83
2018-06-29T02:25:12.331Z,94.13
2018-06-29T02:27:41.840Z,89.57
2018-06-29T02:30:11.259Z,81.33
2018-06-29T02:32:41.513Z,96.77
2018-06-29T02:35:10.900Z,93.27
2018-06-29T02:37:40.359Z,89.93
2018-06-29T02:40:10.588Z,89.07
2018-06-29T02:42:40.289Z,92.63
2018-06-29T02:45:09.810Z,88.30
2018-06-29T02:47:39.221Z,96.33
2018-06-29T02:50:09.616Z,96.20
2018-06-29T02:52:39.017Z,82.20
2018-06-29T02:55:08.101Z,95.60
2018-06-29T02:57:37.465Z,85.17
2018-06-29T03:00:08.315Z,113.33
2018-06-29T03:02:37.815Z,100.40
2018-06-29T03:05:07.338Z,89.53
2018-06-29T03:07:37.376Z,104.70
2018-06-29T03:10:06.816Z,89.30
2018-06-29T03:12:36.894Z,91.33
2018-06-29T03:15:06.532Z,79.27
2018-06-29T03:17:36.104Z,78.00
2018-06-29T03:20:05.711Z,94.83
2018-06-29T03:22:36.190Z,90.53
2018-06-29T03:25:06.408Z,78.70
2018-06-29T03:27:36.448Z,77.07
2018-06-29T03:30:06.487Z,85.60
2018-06-29T03:32:35.936Z,88.97
2018-06-29T03:35:06.154Z,86.47
2018-06-29T03:37:35.641Z,88.43
2018-06-29T03:40:05.326Z,84.67
2018-06-29T03:42:35.684Z,88.20
2018-06-29T03:45:08.293Z,81.20
2018-06-29T03:47:38.445Z,85.67
2018-06-29T03:50:08.671Z,87.60
2018-06-29T03:52:38.780Z,98.47
2018-06-29T03:55:08.203Z,88.10
2018-06-29T03:57:37.685Z,94.97
2018-06-29T04:00:07.175Z,95.80
2018-06-29T04:02:37.116Z,84.70
2018-06-29T04:05:11.110Z,85.57
2018-06-29T04:07:40.628Z,86.47
2018-06-29T04:10:09.781Z,88.23
2018-06-29T04:12:39.224Z,79.80
2018-06-29T04:15:08.991Z,89.00
2018-06-29T04:17:38.921Z,92.53
2018-06-29T04:20:08.453Z,90.17
2018-06-29T04:22:37.989Z,99.63
2018-06-29T04:25:07.495Z,101.93
2018-06-29T04:27:36.669Z,95.40
2018-06-29T04:30:07.362Z,97.67
2018-06-29T04:32:37.523Z,102.33
2018-06-29T04:35:08.457Z,106.90
2018-06-29T04:37:37.843Z,91.03
2018-06-29T04:40:07.240Z,92.47
2018-06-29T04:42:36.632Z,96.97
2018-06-29T04:45:06.556Z,93.63
2018-06-29T04:47:36.600Z,88.90
2018-06-29T04:50:06.754Z,96.40
2018-06-29T04:52:36.729Z,88.80
2018-06-29T04:55:06.198Z,76.27
2018-06-29T04:57:35.582Z,84.20
2018-06-29T05:00:05.983Z,71.47
2018-06-29T05:02:35.498Z,73.30
2018-06-29T05:05:18.507Z,66.13
2018-06-29T05:07:48.790Z,74.97
2018-06-29T05:10:18.554Z,76.73
2018-06-29T05:12:48.974Z,76.13
2018-06-29T05:15:19.355Z,74.77
2018-06-29T05:17:54.663Z,61.83
2018-06-29T05:20:26.206Z,68.33
2018-06-29T05:23:00.256Z,60.83
2018-06-29T05:25:30.639Z,68.00
2018-06-29T05:28:00.508Z,61.57
2018-06-29T05:30:29.959Z,70.50
2018-06-29T05:33:04.033Z,72.40
2018-06-29T05:35:35.796Z,71.47
2018-06-29T05:38:05.647Z,76.43
2018-06-29T05:40:35.661Z,91.30
2018-06-29T05:43:05.455Z,82.07
2018-06-29T05:45:35.245Z,77.97
2018-06-29T05:48:04.864Z,74.67
2018-06-29T05:50:34.916Z,63.17
2018-06-29T05:53:05.057Z,64.47
2018-06-29T05:55:34.914Z,73.43
2018-06-29T05:58:05.653Z,63.07
2018-06-29T06:00:35.531Z,59.40
2018-06-29T06:03:05.071Z,58.90
2018-06-29T06:05:35.634Z,52.43
2018-06-29T06:08:07.030Z,63.20
2018-06-29T06:10:37.366Z,72.80
2018-06-29T06:13:06.780Z,66.50
2018-06-29T06:15:36.740Z,77.10
2018-06-29T06:18:06.955Z,81.23
2018-06-29T06:20:38.151Z,78.90
2018-06-29T06:23:19.331Z,69.67
2018-06-29T06:25:56.636Z,85.80
2018-06-29T06:28:26.213Z,76.90
2018-06-29T06:30:55.705Z,70.73
2018-06-29T06:33:25.693Z,66.90
2018-06-29T06:35:55.364Z,67.57
2018-06-29T06:38:25.094Z,60.53
2018-06-29T06:40:54.557Z,59.73
2018-06-29T06:43:24.553Z,74.33
2018-06-29T06:45:54.406Z,67.90
2018-06-29T06:48:24.150Z,64.90
2018-06-29T06:50:53.797Z,64.07
2018-06-29T06:53:23.685Z,59.63
2018-06-29T06:55:53.448Z,54.50
2018-06-29T06:58:23.378Z,58.60
2018-06-29T07:00:54.076Z,58.13
2018-06-29T07:03:24.207Z,55.93
2018-06-29T07:05:53.602Z,56.27
2018-06-29T07:08:24.470Z,73.40
2018-06-29T07:10:54.760Z,66.63
2018-06-29T07:13:30.829Z,55.37
2018-06-29T07:16:02.039Z,53.63
2018-06-29T07:18:32.288Z,55.80
2018-06-29T07:21:03.204Z,55.53
2018-06-29T07:36:28.811Z,58.77
2018-06-29T07:39:09.477Z,57.40
2018-06-29T07:41:41.975Z,58.27
2018-06-29T07:44:24.477Z,51.40
2018-06-29T07:47:13.826Z,45.13
2018-06-29T07:50:04.886Z,43.23
2018-06-29T08:18:43.940Z,32.33
2018-06-29T08:21:41.020Z,33.67
2018-06-29T08:24:48.026Z,32.57
2018-06-29T08:27:44.257Z,34.00
2018-06-29T09:46:52.684Z,28.27
2018-06-29T09:49:22.609Z,31.63
2018-06-29T09:51:52.640Z,29.33
2018-06-29T09:54:22.573Z,29.50
2018-06-29T09:56:52.026Z,34.00
2018-06-29T09:59:21.550Z,31.27
2018-06-29T10:01:51.528Z,29.37
2018-06-29T10:04:21.953Z,30.17
2018-06-29T10:06:51.830Z,32.30
2018-06-29T10:09:21.871Z,33.83
2018-06-29T10:11:51.313Z,32.30
2018-06-29T10:14:21.016Z,32.33
2018-06-29T10:16:50.797Z,33.77
2018-06-29T10:19:20.648Z,32.10
2018-06-29T10:21:51.375Z,31.97
2018-06-29T10:24:21.240Z,34.17
2018-06-29T10:26:51.071Z,32.20
2018-06-29T10:29:21.352Z,27.83
2018-06-29T10:31:51.715Z,29.17
2018-06-29T10:34:21.668Z,29.97
2018-06-29T10:36:51.880Z,29.23
2018-06-29T10:39:25.044Z,26.33
2018-06-29T10:41:54.846Z,27.83
2018-06-29T10:44:25.032Z,32.93
2018-06-29T10:46:57.872Z,30.17
2018-06-29T10:49:28.748Z,26.90
2018-06-29T10:52:01.044Z,27.30
2018-06-29T10:54:30.615Z,29.40
2018-06-29T10:57:01.788Z,28.07
2018-06-29T10:59:31.504Z,27.47
2018-06-29T11:02:01.798Z,27.87
2018-06-29T11:04:32.054Z,27.30
2018-06-29T11:07:02.470Z,26.10
2018-06-29T11:09:33.582Z,27.83
2018-06-29T11:12:02.765Z,26.77
2018-06-29T11:14:34.585Z,27.07
2018-06-29T11:17:04.428Z,26.23
2018-06-29T11:19:34.031Z,28.27
2018-06-29T11:22:03.556Z,27.83
2018-06-29T11:24:33.028Z,27.33
2018-06-29T11:27:02.667Z,26.03
2018-06-29T11:29:33.067Z,26.83
2018-06-29T11:32:03.334Z,25.23
2018-06-29T11:34:32.749Z,25.37
2018-06-29T11:37:02.191Z,28.53
2018-06-29T11:39:32.173Z,25.77
2018-06-29T11:42:02.437Z,23.97
2018-06-29T11:44:32.050Z,24.40
2018-06-29T11:47:02.896Z,25.03
2018-06-29T11:49:32.434Z,23.57
2018-06-29T11:52:01.839Z,22.83
2018-06-29T11:54:32.239Z,22.53
2018-06-29T11:57:02.086Z,24.43
2018-06-29T11:59:31.515Z,21.90
2018-06-29T12:02:01.860Z,22.70
2018-06-29T12:04:31.366Z,21.80
2018-06-29T12:07:01.837Z,21.97
2018-06-29T12:09:33.060Z,22.37
2018-06-29T12:12:03.672Z,21.23
2018-06-29T12:14:34.729Z,21.23
2018-06-29T12:17:04.290Z,21.83
2018-06-29T12:19:33.946Z,20.93
2018-06-29T12:22:04.072Z,20.97
2018-06-29T12:24:34.306Z,18.93
2018-06-29T12:27:03.456Z,19.67
2018-06-29T12:29:36.676Z,19.27
2018-06-29T12:32:07.333Z,19.50
2018-06-29T12:34:47.212Z,21.17
2018-06-29T12:37:22.653Z,19.83
2018-06-29T12:39:58.015Z,20.17
2018-06-29T12:47:49.462Z,19.70
2018-06-29T12:50:27.901Z,18.83
2018-06-29T12:53:03.037Z,20.47
2018-06-29T12:55:32.639Z,20.23
2018-06-29T12:58:03.159Z,19.40
2018-06-29T13:00:33.962Z,19.47
2018-06-29T13:03:04.749Z,18.73
2018-06-29T13:05:34.258Z,20.13
2018-06-29T13:08:03.673Z,20.83
2018-06-29T13:10:33.471Z,21.00
2018-06-29T13:13:24.349Z,21.63
2018-06-29T13:15:54.237Z,21.63
2018-06-29T13:18:23.595Z,21.70
2018-06-29T13:20:55.629Z,21.43
2018-06-29T13:23:27.108Z,22.30
2018-06-29T13:26:00.414Z,21.17
2018-06-29T13:28:29.969Z,20.90
2018-06-29T13:30:59.461Z,20.40
2018-06-29T13:33:29.011Z,21.80
2018-06-29T13:35:58.840Z,22.03
2018-06-29T13:38:28.230Z,22.87
2018-06-29T13:40:57.635Z,20.50
2018-06-29T13:43:27.530Z,20.20
2018-06-29T13:45:56.994Z,20.60
2018-06-29T13:48:26.870Z,20.67
2018-06-29T13:50:56.839Z,20.60
2018-06-29T13:53:26.378Z,20.77
2018-06-29T13:55:55.786Z,20.50
2018-06-29T13:58:25.964Z,20.33
2018-06-29T14:00:56.022Z,19.07
2018-06-29T14:03:30.950Z,21.10
2018-06-29T14:06:01.195Z,18.63
2018-06-29T14:08:30.606Z,18.63
2018-06-29T14:11:04.959Z,17.33
2018-06-29T14:13:34.408Z,18.73
2018-06-29T14:16:04.410Z,15.80
2018-06-29T14:18:34.526Z,15.73
2018-06-29T14:21:04.026Z,16.33
2018-06-29T14:23:33.631Z,15.60
2018-06-29T14:26:07.694Z,16.80
2018-06-29T14:28:38.028Z,15.87
2018-06-29T14:31:08.284Z,14.83
2018-06-29T14:33:37.738Z,14.67
2018-06-29T14:36:11.081Z,15.13
2018-06-29T14:38:45.349Z,14.67
2018-06-29T14:41:14.729Z,14.33
2018-06-29T14:43:46.403Z,13.97
2018-06-29T14:46:22.905Z,13.40
2018-06-29T14:48:56.647Z,13.67
2018-06-29T14:51:28.735Z,14.43
2018-06-29T14:53:58.311Z,14.10
2018-06-29T14:56:28.536Z,13.37
2018-06-29T14:58:58.221Z,13.57
2018-06-29T15:01:28.380Z,13.70
2018-06-29T15:03:58.024Z,14.60
2018-06-29T15:06:28.668Z,14.20
2018-06-29T15:08:58.258Z,13.23
2018-06-29T15:11:29.287Z,13.47
2018-06-29T15:14:01.716Z,14.57
2018-06-29T15:16:32.164Z,13.70
2018-06-29T15:19:02.969Z,14.50
2018-06-29T15:21:32.525Z,14.23
2018-06-29T15:24:03.146Z,13.30
2018-06-29T15:26:33.660Z,13.67
2018-06-29T15:29:04.091Z,12.17
2018-06-29T15:31:33.872Z,12.33
2018-06-29T15:34:03.587Z,12.30
2018-06-29T15:36:32.987Z,13.00
2018-06-29T15:39:03.111Z,12.07
2018-06-29T15:41:33.341Z,11.03
2018-06-29T15:44:02.735Z,10.90
2018-06-29T15:46:33.875Z,10.97
2018-06-29T15:49:04.340Z,12.57
2018-06-29T15:51:38.191Z,11.27
2018-06-29T15:54:13.377Z,11.00
2018-06-29T15:56:45.008Z,10.73
2018-06-29T15:59:16.415Z,11.20
2018-06-29T16:01:50.796Z,11.13
2018-06-29T16:04:20.336Z,11.00
2018-06-29T16:06:50.689Z,10.17
2018-06-29T16:09:20.337Z,9.93
2018-06-29T16:11:50.474Z,9.93
2018-06-29T16:14:21.387Z,10.20
2018-06-29T16:16:53.524Z,9.17
2018-06-29T16:19:27.594Z,8.73
2018-06-29T16:21:58.412Z,9.50
2018-06-29T16:24:27.944Z,10.57
2018-06-29T16:26:58.098Z,10.00
2018-06-29T16:29:28.351Z,9.93
2018-06-29T16:31:58.020Z,10.27
2018-06-29T16:34:28.139Z,9.73
2018-06-29T16:36:59.837Z,9.30
2018-06-29T16:39:34.262Z,12.00
2018-06-29T16:42:03.763Z,11.37
2018-06-29T16:44:35.477Z,8.83
2018-06-29T16:47:06.607Z,13.27
2018-06-29T16:49:36.829Z,9.17
2018-06-29T16:52:06.976Z,8.97
2018-06-29T16:54:36.470Z,9.30
2018-06-29T16:57:06.157Z,11.03
2018-06-29T16:59:40.602Z,12.27
2018-06-29T17:02:10.645Z,10.33
2018-06-29T17:04:40.625Z,10.17
2018-06-29T17:07:25.795Z,10.10
2018-06-29T17:09:57.771Z,10.27
2018-06-29T17:12:35.469Z,9.53
2018-06-29T17:15:18.292Z,13.50
2018-06-29T17:17:53.171Z,9.93
2018-06-29T17:20:26.616Z,10.53
2018-06-29T17:23:10.253Z,10.17
2018-06-29T17:25:50.346Z,10.97
2018-06-29T17:28:20.871Z,11.27
2018-06-29T17:30:52.387Z,10.20
2018-06-29T17:33:32.052Z,14.17
2018-06-29T17:36:06.300Z,9.57
2018-06-29T17:38:42.284Z,10.00
2018-06-29T17:41:19.012Z,10.77
2018-06-29T17:43:50.464Z,10.07
2018-06-29T17:46:20.309Z,10.50
2018-06-29T17:48:49.745Z,9.87
2018-06-29T17:51:19.944Z,9.93
2018-06-29T17:53:49.522Z,12.37
2018-06-29T17:56:19.128Z,9.93
2018-06-29T17:58:50.315Z,14.17
2018-06-29T18:01:25.155Z,10.80
2018-06-29T18:03:55.737Z,10.40
2018-06-29T18:06:31.738Z,10.50
2018-06-29T18:09:01.566Z,10.73
2018-06-29T18:11:32.244Z,14.33
2018-06-29T18:14:02.719Z,10.50
2018-06-29T18:16:33.657Z,11.13
2018-06-29T18:19:04.687Z,13.10
2018-06-29T18:21:34.192Z,10.43
2018-06-29T18:24:04.006Z,10.93
2018-06-29T18:26:34.405Z,11.40
2018-06-29T18:29:03.807Z,10.87
2018-06-29T18:31:35.171Z,10.70
2018-06-29T18:34:04.981Z,10.80
2018-06-29T18:36:36.883Z,9.47
2018-06-29T18:39:09.897Z,10.57
2018-06-29T18:41:40.018Z,10.47
2018-06-29T18:44:09.384Z,11.93
2018-06-29T18:46:39.281Z,12.73
2018-06-29T18:49:10.679Z,11.33
2018-06-29T18:51:40.491Z,10.53
2018-06-29T18:54:15.867Z,10.53
2018-06-29T18:56:47.232Z,10.20
2018-06-29T18:59:18.810Z,11.40
2018-06-29T19:01:49.548Z,11.60
2018-06-29T19:04:19.800Z,14.20
2018-06-29T19:06:49.325Z,10.83
2018-06-29T19:09:20.092Z,12.47
2018-06-29T19:11:49.798Z,11.23
2018-06-29T19:14:19.279Z,11.70
2018-06-29T19:16:55.289Z,11.73
2018-06-29T19:19:24.807Z,11.77
2018-06-29T19:21:56.380Z,11.03
2018-06-29T19:24:47.034Z,11.20
2018-06-29T19:27:17.649Z,11.50
2018-06-29T19:29:52.129Z,10.70
2018-06-29T19:32:24.338Z,11.50
2018-06-29T19:35:13.868Z,12.17
2018-06-29T19:37:47.448Z,15.00
2018-06-29T19:53:40.246Z,11.43
2018-06-29T19:56:27.935Z,13.57
2018-06-29T19:59:07.043Z,12.27
2018-06-29T20:01:38.545Z,10.87
2018-06-29T20:04:08.284Z,11.37
2018-06-29T20:06:42.365Z,11.00
2018-06-29T20:09:13.014Z,11.73
2018-06-29T20:11:42.493Z,15.53
2018-06-29T20:14:15.583Z,11.70
2018-06-29T20:16:45.444Z,10.80
2018-06-29T20:19:14.954Z,12.23
2018-06-29T20:21:45.456Z,13.50
2018-06-29T20:24:14.930Z,12.07
2018-06-29T20:26:45.296Z,11.03
2018-06-29T20:29:14.808Z,11.57
2018-06-29T20:31:44.424Z,12.40
2018-06-29T20:34:13.926Z,14.47
2018-06-29T20:36:43.444Z,14.80
2018-06-29T20:39:14.077Z,14.07
2018-06-29T20:41:43.524Z,15.90
2018-06-29T20:44:12.982Z,15.60
2018-06-29T20:46:43.202Z,16.03
2018-06-29T20:49:13.262Z,16.03
2018-06-29T20:51:42.844Z,16.10
2018-06-29T20:54:12.238Z,16.67
2018-06-29T20:56:42.402Z,15.93
2018-06-29T20:59:11.782Z,15.57
2018-06-29T21:01:41.215Z,15.57
2018-06-29T21:04:10.709Z,15.80
2018-06-29T21:06:40.267Z,15.13
2018-06-29T21:09:11.408Z,15.17
2018-06-29T21:11:41.621Z,15.23
2018-06-29T21:14:11.823Z,14.97
2018-06-29T21:16:41.339Z,15.27
2018-06-29T21:19:11.421Z,15.07
2018-06-29T21:21:40.853Z,13.47
2018-06-29T21:24:10.875Z,15.30
2018-06-29T21:26:40.299Z,14.97
2018-06-29T21:29:09.797Z,14.37
2018-06-29T21:31:39.927Z,14.90
2018-06-29T21:34:09.502Z,15.00
2018-06-29T21:36:39.020Z,14.97
2018-06-29T21:39:11.598Z,14.40
2018-06-29T21:41:42.256Z,15.07
2018-06-29T21:44:11.659Z,14.20
2018-06-29T21:46:41.714Z,14.57
2018-06-29T21:49:11.761Z,14.73
2018-06-29T21:51:41.229Z,14.00
2018-06-29T21:54:10.768Z,16.77
2018-06-29T21:56:40.303Z,14.53
2018-06-29T21:59:09.719Z,14.50
2018-06-29T22:01:39.132Z,15.60
2018-06-29T22:04:09.082Z,15.10
2018-06-29T22:06:38.610Z,14.13
2018-06-29T22:09:09.653Z,13.90
2018-06-29T22:11:39.223Z,13.43
2018-06-29T22:14:09.062Z,13.07
2018-06-29T22:16:38.618Z,11.63
2018-06-29T22:19:08.180Z,13.80
2018-06-29T22:21:38.336Z,12.60
2018-06-29T22:24:07.767Z,12.07
2018-06-29T22:26:37.191Z,12.90
2018-06-29T22:29:06.744Z,13.00
2018-06-29T22:31:36.253Z,14.37
2018-06-29T22:34:05.865Z,12.37
2018-06-29T22:36:35.307Z,15.87
2018-06-29T22:39:07.069Z,13.53
2018-06-29T22:41:36.411Z,13.80
2018-06-29T22:44:06.581Z,15.23
2018-06-29T22:46:35.729Z,12.90
2018-06-29T22:49:05.973Z,13.00
2018-06-29T22:51:36.071Z,13.23
2018-06-29T22:54:05.446Z,17.17
2018-06-29T22:56:34.834Z,15.83
2018-06-29T22:59:04.260Z,15.23
2018-06-29T23:01:33.782Z,14.53
2018-06-29T23:04:03.166Z,14.63
2018-06-29T23:06:32.546Z,15.40
2018-06-29T23:09:02.475Z,14.90
2018-06-29T23:11:32.528Z,15.83
2018-06-29T23:14:01.874Z,14.87
2018-06-29T23:16:31.400Z,15.10
2018-06-29T23:19:00.863Z,15.07
2018-06-29T23:21:30.370Z,14.13
2018-06-29T23:23:59.742Z,14.27
2018-06-29T23:26:29.131Z,14.40
2018-06-29T23:28:58.497Z,14.23
2018-06-29T23:31:27.548Z,14.40
2018-06-29T23:33:56.949Z,16.47
2018-06-29T23:36:26.348Z,16.37
2018-06-29T23:38:55.756Z,16.77
2018-06-29T23:41:25.182Z,16.07
2018-06-29T23:43:54.533Z,15.33
2018-06-29T23:46:23.929Z,16.67
2018-06-29T23:48:53.901Z,16.73
2018-06-29T23:51:23.385Z,16.90
2018-06-29T23:53:52.909Z,16.27
2018-06-29T23:56:22.784Z,15.33
2018-06-29T23:58:52.207Z,16.53
